Portada
METAR-TAF:

METAR-TAF

Aeroports :

Cairns, Austràlia

latitud: 16-53S, longitud: 145-45E, altitud: 3 m

Observació

L'informe es va fer fa 11 minuts, a les 15:30 UTC
Vent 5 kt del Sud
Temperatura 23°C
Humitat 57%
Pressió 1017 hPa
Visibilitat 10 km o més
Cel cobert a una alçada de 6100 ft

METAR: YBCS 251530Z AUTO 18005KT 9999 // OVC061 23/14 Q1017

Hora: 01:41 (15:41 UTC)

Pronòstic

L'informe es va fer fa 1 hora i 35 minuts, a les 14:06 UTC
Pronòstic vàlid del 25 a les 15 UTC al 26 a les 12 UTC
Vent 6 kt del Sud
Visibilitat 10 km o més
sense núvols per sota de 1500 mi sense presència de cumulonimbus.
A partir de les 26 a les 0000 UTC
Vent 12 kt del Est/Sud-Est
Visibilitat 10 km o més
Escasses núvols a una alçada de 3000 ft
A partir de les 26 a les 0800 UTC
Vent 7 kt del Sud/Sud-Est
Visibilitat 10 km o més
Núvols disperses a una alçada de 2500 ft

TAF: YBCS 251406Z 2515/2612 17006KT CAVOK FM260000 12012KT 9999 FEW030 FM260800 16007KT 9999 SCT025

Observacions i pronòstics meteorològics de més de 4000 aeroports (METAR i TAF).

Les estacions disponibles són els punts grocs i vermells al mapa.

Posi el ratolí al punt desitjat per veure el nom de l'estació.

Feu clic per veure les observacions i els pronòstics meteorològics.

Per canviar el mapa: feu clic els botons verds amb una creu de color negre per apropar; al botó verd amb un guió per allunyar la imatge; o en les fletxes verdes per a mapes adjacents.


METAR-TAF: